Time;durP1;ratioP1;P1;durP2;ratioP2;P2;SDS_P1;SDS_P2;PMS_P1;PMS_P2;Temp;Humidity;BMP_temperature;BMP_pressure;BME280_temperature;BME280_humidity;BME280_pressure;Samples;Min_cycle;Max_cycle;Signal;HPM_P1;HPM_P2
2023/06/21 00:00:01;;;;;;;4.53;2.10;;;18.90;99.90;;;;;;6121039;23;20006;-55
2023/06/21 00:02:28;;;;;;;2.95;1.70;;;18.90;99.90;;;;;;6089877;23;20352;-57
2023/06/21 00:04:55;;;;;;;3.22;1.85;;;19.00;99.90;;;;;;6091748;23;20359;-56
2023/06/21 00:07:23;;;;;;;2.83;1.90;;;19.10;99.90;;;;;;6092099;23;20011;-56
2023/06/21 00:09:49;;;;;;;2.55;1.90;;;19.10;99.90;;;;;;6090234;23;20077;-57
2023/06/21 00:12:15;;;;;;;8.50;2.47;;;19.10;99.90;;;;;;6092285;23;20002;-58
2023/06/21 00:14:40;;;;;;;2.22;1.48;;;19.10;99.90;;;;;;6091079;23;20009;-57
2023/06/21 00:17:06;;;;;;;2.17;1.17;;;19.10;99.90;;;;;;6092031;23;20002;-59
2023/06/21 00:19:31;;;;;;;1.60;1.40;;;19.00;99.90;;;;;;6090491;23;20447;-59
2023/06/21 00:21:58;;;;;;;2.55;1.33;;;19.00;99.90;;;;;;6091582;23;20456;-58
2023/06/21 00:24:23;;;;;;;2.58;1.17;;;18.90;99.90;;;;;;6091458;23;20007;-60
2023/06/21 00:26:49;;;;;;;2.25;1.25;;;18.90;99.90;;;;;;6091156;23;20006;-60
2023/06/21 00:29:15;;;;;;;1.40;1.30;;;18.80;99.90;;;;;;6091333;23;20034;-60
2023/06/21 00:31:40;;;;;;;3.08;1.38;;;18.80;99.90;;;;;;6110732;23;20022;-56
2023/06/21 00:34:06;;;;;;;3.35;1.25;;;18.80;99.90;;;;;;6120805;23;20086;-60
2023/06/21 00:36:31;;;;;;;3.05;1.40;;;18.80;99.90;;;;;;6120266;23;20005;-60
2023/06/21 00:38:57;;;;;;;3.83;1.30;;;18.70;99.90;;;;;;6120394;23;20071;-60
2023/06/21 00:41:23;;;;;;;1.38;0.95;;;18.70;99.90;;;;;;6117157;23;20524;-60
2023/06/21 00:43:48;;;;;;;2.33;1.02;;;18.70;99.90;;;;;;6120219;23;20006;-60
2023/06/21 00:46:15;;;;;;;3.45;1.40;;;18.70;99.90;;;;;;6121688;23;20008;-60
2023/06/21 00:48:41;;;;;;;1.60;1.00;;;18.60;99.90;;;;;;6120974;23;20029;-59
2023/06/21 00:51:07;;;;;;;2.42;1.30;;;18.60;99.90;;;;;;6118952;23;20335;-59
2023/06/21 00:53:32;;;;;;;4.22;1.20;;;18.60;99.90;;;;;;6121361;23;20229;-62
2023/06/21 00:56:00;;;;;;;1.85;1.10;;;18.60;99.90;;;;;;6120682;23;20081;-59
2023/06/21 00:58:26;;;;;;;2.55;1.35;;;18.60;99.90;;;;;;6118826;23;20009;-60
2023/06/21 01:00:52;;;;;;;6.22;1.23;;;18.60;99.90;;;;;;6117682;23;20022;-60
2023/06/21 01:03:21;;;;;;;1.58;1.20;;;18.60;99.90;;;;;;6116831;23;20013;-60
2023/06/21 01:06:15;;;;;;;6.40;1.63;;;18.60;99.90;;;;;;6120021;23;20010;-61
2023/06/21 01:09:18;;;;;;;2.33;1.23;;;18.60;99.90;;;;;;6108627;23;20034;-59
2023/06/21 01:11:53;;;;;;;4.90;1.30;;;18.60;99.90;;;;;;6097837;23;20429;-60
2023/06/21 01:14:35;;;;;;;2.05;1.58;;;18.50;99.90;;;;;;6121280;23;20010;-60
2023/06/21 01:17:03;;;;;;;4.82;1.38;;;18.50;99.90;;;;;;6123012;23;20503;-62
2023/06/21 01:19:41;;;;;;;2.78;1.35;;;18.50;99.90;;;;;;6123536;23;20016;-62
2023/06/21 01:22:55;;;;;;;3.92;1.25;;;18.50;99.90;;;;;;6122629;23;20042;-61
2023/06/21 01:26:00;;;;;;;2.40;1.30;;;18.50;99.90;;;;;;6095851;23;20036;-60
2023/06/21 01:28:53;;;;;;;3.42;1.30;;;18.60;99.90;;;;;;6144092;23;20028;-62
2023/06/21 01:31:20;;;;;;;1.48;1.35;;;18.60;99.90;;;;;;6122204;23;20022;-61
2023/06/21 01:33:46;;;;;;;2.20;1.20;;;18.50;99.90;;;;;;6122292;23;20029;-62
2023/06/21 01:36:13;;;;;;;1.70;1.27;;;18.50;99.90;;;;;;6122671;23;20002;-62
2023/06/21 01:38:38;;;;;;;1.98;1.70;;;18.50;99.90;;;;;;6122624;23;20002;-62
2023/06/21 01:41:06;;;;;;;4.05;1.50;;;18.50;99.90;;;;;;6122673;23;20009;-61
2023/06/21 01:43:31;;;;;;;4.32;1.65;;;18.50;99.90;;;;;;6120823;23;20009;-61
2023/06/21 01:46:00;;;;;;;3.13;1.40;;;18.40;99.90;;;;;;6121971;23;20012;-62
2023/06/21 01:48:26;;;;;;;2.13;1.40;;;18.40;99.90;;;;;;6122795;23;20036;-61
2023/06/21 01:50:52;;;;;;;1.92;1.42;;;18.40;99.90;;;;;;6121869;23;20009;-62
2023/06/21 01:53:19;;;;;;;2.90;1.58;;;18.40;99.90;;;;;;6123090;23;20780;-62
2023/06/21 01:55:48;;;;;;;2.63;1.20;;;18.40;99.90;;;;;;6120508;23;20454;-61
2023/06/21 01:58:15;;;;;;;4.15;1.70;;;18.40;99.90;;;;;;6122599;23;20002;-60
2023/06/21 02:00:41;;;;;;;3.33;1.48;;;18.40;99.90;;;;;;6121596;23;20017;-61
2023/06/21 02:03:10;;;;;;;2.50;1.52;;;18.30;99.90;;;;;;6122426;23;20005;-62
2023/06/21 02:05:36;;;;;;;2.38;1.60;;;18.30;99.90;;;;;;6122105;23;20350;-62
2023/06/21 02:08:04;;;;;;;4.57;1.48;;;18.40;99.90;;;;;;6122387;23;20115;-61
2023/06/21 02:10:31;;;;;;;3.20;1.50;;;18.30;99.90;;;;;;6145597;23;20092;-63
2023/06/21 02:12:56;;;;;;;3.10;1.40;;;18.30;99.90;;;;;;6120497;23;20340;-62
2023/06/21 02:15:23;;;;;;;2.90;1.40;;;18.30;99.90;;;;;;6121675;23;20013;-63
2023/06/21 02:17:51;;;;;;;1.90;1.70;;;18.30;99.90;;;;;;6119681;23;20002;-62
2023/06/21 02:20:19;;;;;;;1.75;1.50;;;18.30;99.90;;;;;;6122495;23;20006;-62
2023/06/21 02:22:46;;;;;;;2.65;1.95;;;18.30;99.90;;;;;;6122469;23;20041;-61
2023/06/21 02:25:13;;;;;;;3.97;1.90;;;18.30;99.90;;;;;;6121831;23;20144;-62
2023/06/21 02:27:39;;;;;;;3.05;1.98;;;18.30;99.90;;;;;;6121610;23;20073;-62
2023/06/21 02:30:06;;;;;;;2.85;1.83;;;18.30;99.90;;;;;;6120174;23;20006;-63
2023/06/21 02:32:32;;;;;;;3.08;2.00;;;18.20;99.90;;;;;;6120107;23;20033;-63
2023/06/21 02:34:59;;;;;;;3.08;1.63;;;18.20;99.90;;;;;;6121509;23;19998;-62
2023/06/21 02:37:27;;;;;;;3.85;2.20;;;18.20;99.90;;;;;;6122258;23;20050;-62
2023/06/21 02:39:56;;;;;;;3.72;1.98;;;18.20;99.90;;;;;;6121341;23;20089;-61
2023/06/21 02:42:23;;;;;;;3.38;2.30;;;18.20;99.90;;;;;;6121577;23;20006;-62
2023/06/21 02:44:49;;;;;;;3.90;2.60;;;18.20;99.90;;;;;;6119891;23;20010;-61
2023/06/21 02:47:14;;;;;;;3.35;2.45;;;18.20;99.90;;;;;;6121480;23;20395;-62
2023/06/21 02:49:40;;;;;;;2.95;2.38;;;18.10;99.90;;;;;;6121182;23;20033;-62
2023/06/21 02:52:06;;;;;;;3.28;2.50;;;18.10;99.90;;;;;;6120525;23;20474;-61
2023/06/21 02:54:32;;;;;;;3.80;2.03;;;18.20;99.90;;;;;;6121178;23;20024;-62
2023/06/21 02:56:57;;;;;;;2.80;2.10;;;18.10;99.90;;;;;;6121842;23;20002;-61
2023/06/21 02:59:23;;;;;;;2.95;2.28;;;18.10;99.90;;;;;;6144682;23;20347;-62
2023/06/21 03:01:49;;;;;;;3.28;2.40;;;18.10;99.90;;;;;;6120629;23;20110;-61
2023/06/21 03:04:21;;;;;;;3.22;2.28;;;18.10;99.90;;;;;;6120789;23;20006;-61
2023/06/21 03:06:46;;;;;;;3.35;2.55;;;18.10;99.90;;;;;;6121383;23;20041;-62
2023/06/21 03:09:12;;;;;;;3.10;2.55;;;18.10;99.90;;;;;;6120517;23;20105;-60
2023/06/21 03:11:38;;;;;;;3.92;2.47;;;18.10;99.90;;;;;;6120385;23;20088;-62
2023/06/21 03:14:03;;;;;;;3.38;3.08;;;18.10;99.90;;;;;;6120636;23;20446;-62
2023/06/21 03:16:30;;;;;;;3.15;2.85;;;18.10;99.90;;;;;;6120425;23;19998;-62
2023/06/21 03:18:55;;;;;;;3.00;2.58;;;18.10;99.90;;;;;;6118719;23;20002;-62
2023/06/21 03:21:22;;;;;;;4.30;2.60;;;18.10;99.90;;;;;;6120554;23;20057;-61
2023/06/21 03:23:48;;;;;;;3.88;3.38;;;18.10;99.90;;;;;;6119809;23;20117;-61
2023/06/21 03:26:14;;;;;;;5.05;3.55;;;18.00;99.90;;;;;;6120324;23;20368;-62
2023/06/21 03:28:41;;;;;;;4.40;2.90;;;18.00;99.90;;;;;;6119870;23;20013;-62
2023/06/21 03:31:07;;;;;;;5.40;3.33;;;18.00;99.90;;;;;;6119499;23;20014;-62
2023/06/21 03:33:32;;;;;;;7.10;4.25;;;18.00;99.90;;;;;;6120531;23;20009;-61
2023/06/21 03:35:58;;;;;;;5.10;4.38;;;18.00;99.90;;;;;;6119896;23;20002;-62
2023/06/21 03:38:24;;;;;;;5.28;4.30;;;18.00;99.90;;;;;;6120492;23;20338;-62
2023/06/21 03:40:50;;;;;;;7.78;4.25;;;18.10;99.90;;;;;;6120286;23;20006;-61
2023/06/21 03:43:15;;;;;;;5.65;4.43;;;18.10;99.90;;;;;;6120563;23;20288;-62
2023/06/21 03:45:42;;;;;;;5.13;4.60;;;18.10;99.90;;;;;;6118836;23;20002;-60
2023/06/21 03:48:08;;;;;;;5.35;4.78;;;18.10;99.90;;;;;;6120268;23;20006;-62
2023/06/21 03:50:33;;;;;;;5.65;5.03;;;18.10;99.90;;;;;;6118117;23;20010;-61
2023/06/21 03:53:00;;;;;;;7.93;5.63;;;18.10;99.90;;;;;;6119883;23;20005;-62
2023/06/21 03:55:26;;;;;;;8.45;5.72;;;18.10;99.90;;;;;;6119299;23;20009;-62
2023/06/21 03:57:51;;;;;;;6.78;5.63;;;18.10;99.90;;;;;;6119944;23;20010;-62
2023/06/21 04:00:17;;;;;;;9.20;6.60;;;18.20;99.90;;;;;;6118781;23;20009;-62
2023/06/21 04:02:44;;;;;;;6.50;5.65;;;18.10;99.90;;;;;;6119687;23;20371;-62
2023/06/21 04:05:10;;;;;;;6.55;5.15;;;18.10;99.90;;;;;;6119792;23;20072;-62
2023/06/21 04:07:36;;;;;;;6.70;5.50;;;18.20;99.90;;;;;;6120255;23;20034;-61
2023/06/21 04:10:02;;;;;;;5.85;5.35;;;18.20;99.90;;;;;;6119450;23;20025;-62
2023/06/21 04:12:29;;;;;;;5.95;4.88;;;18.20;99.90;;;;;;6119886;23;20105;-62
2023/06/21 04:14:56;;;;;;;8.95;5.00;;;18.30;99.90;;;;;;6118691;23;20506;-61
2023/06/21 04:17:22;;;;;;;6.20;4.90;;;18.30;99.90;;;;;;6119935;23;20026;-61
2023/06/21 04:19:47;;;;;;;5.50;5.00;;;18.30;99.90;;;;;;6119706;23;20013;-61
2023/06/21 04:22:13;;;;;;;5.95;5.35;;;18.40;99.90;;;;;;6119484;23;20009;-62
2023/06/21 04:24:38;;;;;;;6.55;5.10;;;18.40;99.90;;;;;;6119210;23;20068;-61
2023/06/21 04:27:05;;;;;;;6.25;5.03;;;18.50;99.90;;;;;;6118800;23;20006;-62
2023/06/21 04:29:31;;;;;;;4.90;4.45;;;18.50;99.90;;;;;;6119263;23;20037;-61
2023/06/21 04:31:56;;;;;;;5.13;4.63;;;18.60;99.90;;;;;;6118211;23;20018;-61
2023/06/21 04:34:22;;;;;;;4.93;4.43;;;18.60;99.90;;;;;;6119503;23;20013;-62
2023/06/21 04:36:48;;;;;;;5.07;4.35;;;18.60;99.90;;;;;;6117436;23;20350;-61
2023/06/21 04:39:17;;;;;;;5.50;4.45;;;18.60;99.90;;;;;;6120022;23;20006;-62
2023/06/21 04:41:46;;;;;;;5.00;4.22;;;18.70;99.90;;;;;;6119756;23;20017;-62
2023/06/21 04:44:12;;;;;;;5.15;4.72;;;18.70;99.90;;;;;;6119692;23;20010;-61
2023/06/21 04:46:37;;;;;;;5.30;4.80;;;18.70;99.90;;;;;;6117613;23;20006;-61
2023/06/21 04:49:07;;;;;;;5.97;4.43;;;18.70;99.90;;;;;;6119713;23;20012;-61
2023/06/21 04:51:32;;;;;;;5.68;5.10;;;18.80;99.90;;;;;;6119400;23;20002;-61
2023/06/21 04:54:01;;;;;;;5.68;5.15;;;18.80;99.90;;;;;;6119441;23;20002;-61
2023/06/21 04:56:27;;;;;;;6.00;4.90;;;18.90;99.90;;;;;;6119886;23;20033;-60
2023/06/21 04:58:53;;;;;;;5.90;5.30;;;18.90;99.90;;;;;;6119963;23;20068;-61
2023/06/21 05:01:19;;;;;;;6.80;5.82;;;18.90;99.90;;;;;;6117911;23;20022;-58
2023/06/21 05:03:48;;;;;;;8.27;6.32;;;19.00;99.90;;;;;;6118970;23;20033;-59
2023/06/21 05:06:14;;;;;;;6.72;6.13;;;19.10;99.90;;;;;;6119787;23;20010;-58
2023/06/21 05:08:41;;;;;;;7.22;6.53;;;19.10;99.90;;;;;;6119628;23;20403;-58
2023/06/21 05:11:08;;;;;;;7.57;6.88;;;19.20;99.90;;;;;;6120110;23;20010;-54
2023/06/21 05:13:34;;;;;;;8.25;7.35;;;19.30;99.90;;;;;;6119808;23;20032;-56
2023/06/21 05:15:59;;;;;;;8.27;7.45;;;19.30;99.90;;;;;;6118352;23;20435;-55
2023/06/21 05:18:25;;;;;;;9.02;7.45;;;19.40;99.90;;;;;;6117797;23;20435;-55
2023/06/21 05:20:51;;;;;;;8.77;7.88;;;19.40;99.90;;;;;;6119911;23;20002;-56
2023/06/21 05:23:16;;;;;;;10.68;8.38;;;19.50;99.90;;;;;;6120082;23;20002;-52
2023/06/21 05:25:42;;;;;;;9.23;8.23;;;19.60;99.90;;;;;;6119402;23;20014;-54
2023/06/21 05:28:08;;;;;;;9.52;7.80;;;19.60;99.90;;;;;;6120085;23;20009;-58
2023/06/21 05:30:33;;;;;;;10.52;9.50;;;19.60;99.90;;;;;;6118374;23;20022;-55
2023/06/21 05:32:59;;;;;;;10.73;9.57;;;19.50;99.90;;;;;;6119960;23;20002;-55
2023/06/21 05:35:24;;;;;;;12.45;11.15;;;19.50;99.90;;;;;;6120014;23;20009;-56
2023/06/21 05:37:52;;;;;;;15.10;13.50;;;19.50;99.90;;;;;;6120048;23;20076;-56
2023/06/21 05:40:19;;;;;;;16.20;13.98;;;19.40;99.90;;;;;;6119699;23;20077;-58
2023/06/21 05:42:44;;;;;;;16.00;14.38;;;19.30;99.90;;;;;;6120186;23;20006;-55
2023/06/21 05:45:10;;;;;;;16.92;14.85;;;19.30;99.90;;;;;;6120088;23;20041;-57
2023/06/21 05:47:36;;;;;;;16.75;14.95;;;19.20;99.90;;;;;;6120016;23;20025;-58
2023/06/21 05:50:02;;;;;;;19.70;16.10;;;19.20;99.90;;;;;;6120250;23;20007;-59
2023/06/21 05:52:29;;;;;;;18.77;16.08;;;19.20;99.90;;;;;;6142828;23;20030;-58
2023/06/21 05:54:54;;;;;;;18.33;16.35;;;19.10;99.90;;;;;;6119628;23;20008;-59
2023/06/21 05:57:20;;;;;;;22.90;18.67;;;19.10;99.90;;;;;;6143250;23;20030;-59
2023/06/21 05:59:46;;;;;;;20.77;17.02;;;19.10;99.90;;;;;;6120595;23;20006;-58
2023/06/21 06:02:11;;;;;;;19.80;17.70;;;19.10;99.90;;;;;;6120793;23;20022;-57
2023/06/21 06:04:38;;;;;;;21.60;18.50;;;19.10;99.90;;;;;;6120677;23;20006;-59
2023/06/21 06:07:04;;;;;;;25.63;20.27;;;19.10;99.90;;;;;;6121792;23;20060;-59
2023/06/21 06:09:30;;;;;;;26.48;21.52;;;19.20;99.90;;;;;;6144582;23;20006;-59
2023/06/21 06:11:56;;;;;;;26.63;21.15;;;19.30;99.90;;;;;;6121529;23;20053;-59
2023/06/21 06:14:23;;;;;;;26.67;21.05;;;19.30;99.90;;;;;;6120601;23;20026;-59
2023/06/21 06:16:48;;;;;;;24.15;19.40;;;19.30;99.90;;;;;;6144165;23;20089;-60
2023/06/21 06:19:14;;;;;;;23.98;21.23;;;19.40;99.90;;;;;;6121310;23;20029;-59
2023/06/21 06:21:41;;;;;;;25.38;21.98;;;19.50;99.90;;;;;;6121676;23;20061;-60
2023/06/21 06:24:06;;;;;;;25.17;22.45;;;19.50;99.90;;;;;;6121210;23;20010;-58
2023/06/21 06:26:32;;;;;;;28.63;23.23;;;19.60;99.90;;;;;;6121162;23;20076;-60
2023/06/21 06:28:58;;;;;;;26.50;22.13;;;19.70;99.90;;;;;;6121705;23;20695;-59
2023/06/21 06:31:26;;;;;;;29.02;24.27;;;19.90;99.90;;;;;;6141770;23;20018;-59
2023/06/21 06:33:52;;;;;;;26.25;21.33;;;19.90;99.90;;;;;;6120937;23;20037;-58
2023/06/21 06:36:18;;;;;;;27.00;23.40;;;20.10;99.90;;;;;;6121723;23;20025;-60
2023/06/21 06:38:50;;;;;;;28.40;22.45;;;20.30;99.90;;;;;;6120996;23;20006;-60
2023/06/21 06:41:17;;;;;;;27.73;24.50;;;20.50;99.90;;;;;;6121569;23;20390;-60
2023/06/21 06:43:43;;;;;;;28.38;24.38;;;20.60;99.90;;;;;;6120650;23;20010;-58
2023/06/21 06:46:09;;;;;;;28.90;25.67;;;20.70;99.90;;;;;;6120530;23;20674;-59
2023/06/21 06:48:35;;;;;;;28.23;25.15;;;20.80;99.90;;;;;;6121277;23;20009;-60
2023/06/21 06:51:00;;;;;;;25.02;22.25;;;20.80;99.90;;;;;;6120537;23;20014;-58
2023/06/21 06:53:26;;;;;;;29.58;25.00;;;20.80;99.90;;;;;;6120797;23;20006;-60
2023/06/21 06:55:52;;;;;;;26.65;23.08;;;20.80;99.90;;;;;;6119876;23;20005;-61
2023/06/21 06:58:19;;;;;;;27.45;24.45;;;20.90;99.90;;;;;;6120622;23;20013;-58
2023/06/21 07:00:44;;;;;;;29.20;24.85;;;20.90;99.90;;;;;;6118872;23;20025;-59
2023/06/21 07:03:10;;;;;;;30.67;25.45;;;20.90;99.90;;;;;;6143321;23;20009;-60
2023/06/21 07:05:35;;;;;;;25.48;22.92;;;20.90;99.90;;;;;;6119815;23;20057;-60
2023/06/21 07:08:03;;;;;;;26.08;23.38;;;21.00;99.90;;;;;;6119680;23;20375;-60
2023/06/21 07:10:29;;;;;;;27.10;22.88;;;21.00;99.90;;;;;;6117644;23;20402;-59
2023/06/21 07:12:55;;;;;;;27.52;24.52;;;21.00;99.90;;;;;;6120198;23;19998;-59
2023/06/21 07:15:20;;;;;;;25.58;22.98;;;21.00;99.90;;;;;;6142408;23;20006;-59
2023/06/21 07:17:46;;;;;;;27.25;23.58;;;21.00;99.90;;;;;;6120178;23;20006;-59
2023/06/21 07:20:12;;;;;;;26.73;23.98;;;20.90;99.90;;;;;;6119968;23;20037;-60
2023/06/21 07:22:37;;;;;;;27.50;23.73;;;21.00;99.90;;;;;;6120474;23;20002;-58
2023/06/21 07:25:03;;;;;;;23.50;20.75;;;20.90;99.90;;;;;;6118149;23;20394;-60
2023/06/21 07:27:29;;;;;;;25.55;23.00;;;21.00;99.90;;;;;;6120894;23;20009;-59
2023/06/21 07:29:55;;;;;;;24.50;22.08;;;21.00;99.90;;;;;;6119162;23;20002;-60
2023/06/21 07:32:21;;;;;;;26.17;22.25;;;21.00;99.90;;;;;;6139173;23;20103;-53
2023/06/21 07:34:46;;;;;;;24.13;20.77;;;21.10;99.90;;;;;;6148642;23;20012;-54
2023/06/21 07:37:12;;;;;;;25.38;22.63;;;21.10;99.90;;;;;;6148422;23;20002;-52
2023/06/21 07:39:38;;;;;;;24.20;20.45;;;21.20;99.90;;;;;;6148446;23;20616;-55
2023/06/21 07:42:04;;;;;;;23.85;21.50;;;21.30;99.90;;;;;;6148446;23;20386;-53
2023/06/21 07:44:33;;;;;;;24.73;22.35;;;21.20;99.90;;;;;;6149992;23;20426;-55
2023/06/21 07:46:58;;;;;;;24.42;22.02;;;21.10;99.90;;;;;;6149647;23;20013;-57
2023/06/21 07:49:24;;;;;;;24.73;22.30;;;21.10;99.90;;;;;;6150505;23;20013;-56
2023/06/21 07:51:50;;;;;;;24.27;21.77;;;21.00;99.90;;;;;;6147895;23;20017;-54
2023/06/21 07:54:16;;;;;;;24.63;22.23;;;21.10;99.90;;;;;;6148701;23;20338;-55
2023/06/21 07:56:41;;;;;;;21.98;19.92;;;21.20;99.90;;;;;;6150196;23;20002;-54
2023/06/21 07:59:07;;;;;;;22.50;20.38;;;21.40;99.90;;;;;;6150248;23;20501;-54
2023/06/21 08:01:32;;;;;;;24.17;21.75;;;21.50;99.90;;;;;;6147192;23;20591;-54
2023/06/21 08:03:59;;;;;;;22.77;20.33;;;21.60;99.90;;;;;;6149635;23;20012;-52
2023/06/21 08:06:26;;;;;;;21.80;19.77;;;21.80;99.90;;;;;;6149739;23;20063;-54
2023/06/21 08:08:51;;;;;;;24.35;21.92;;;21.80;99.90;;;;;;6149496;23;20012;-55
2023/06/21 08:11:17;;;;;;;24.42;22.13;;;21.80;99.90;;;;;;6148564;23;20013;-54
2023/06/21 08:13:42;;;;;;;22.80;20.52;;;21.90;99.90;;;;;;6149528;23;20308;-52
2023/06/21 08:16:08;;;;;;;26.08;23.67;;;22.00;99.90;;;;;;6148773;23;20001;-54
2023/06/21 08:18:35;;;;;;;26.13;23.67;;;22.10;99.90;;;;;;6149069;23;19997;-52
2023/06/21 08:21:00;;;;;;;23.88;21.55;;;22.20;99.90;;;;;;6149798;23;20056;-53
2023/06/21 08:23:26;;;;;;;24.10;21.58;;;22.10;99.90;;;;;;6149534;23;20009;-53
2023/06/21 08:25:52;;;;;;;23.63;21.42;;;22.20;99.90;;;;;;6149641;23;20009;-56
2023/06/21 08:28:17;;;;;;;24.13;21.80;;;22.30;99.90;;;;;;6149719;23;20455;-51
2023/06/21 08:30:43;;;;;;;22.38;20.30;;;22.40;99.90;;;;;;6148598;23;20365;-54
2023/06/21 08:33:09;;;;;;;25.00;22.70;;;22.70;99.90;;;;;;6149358;23;19998;-56
2023/06/21 08:35:36;;;;;;;23.40;21.25;;;22.90;99.90;;;;;;6148611;23;20712;-52
2023/06/21 08:38:02;;;;;;;21.27;19.25;;;23.30;99.90;;;;;;6147997;23;20002;-53
2023/06/21 08:40:32;;;;;;;19.88;17.98;;;23.50;99.90;;;;;;6149426;23;20013;-56
2023/06/21 08:42:58;;;;;;;16.98;15.38;;;23.60;99.90;;;;;;6149988;23;20033;-51
2023/06/21 08:45:24;;;;;;;16.05;14.55;;;23.70;99.90;;;;;;6148218;23;20004;-54
2023/06/21 08:47:53;;;;;;;16.98;15.38;;;23.80;99.90;;;;;;6149908;23;20002;-55
2023/06/21 08:50:20;;;;;;;14.90;13.55;;;24.00;99.90;;;;;;6149604;23;20001;-52
2023/06/21 08:52:48;;;;;;;14.65;13.35;;;24.00;99.90;;;;;;6149038;23;20033;-51
2023/06/21 08:55:15;;;;;;;14.88;13.63;;;24.10;99.90;;;;;;6146403;23;20454;-54
2023/06/21 08:58:01;;;;;;;14.90;13.52;;;24.10;99.90;;;;;;6149488;23;20028;-54
2023/06/21 09:00:33;;;;;;;12.90;11.73;;;24.10;99.90;;;;;;6148370;23;20098;-54
2023/06/21 09:03:26;;;;;;;15.23;13.85;;;23.90;99.90;;;;;;6149994;23;19998;-55
2023/06/21 09:05:56;;;;;;;15.00;13.68;;;23.70;99.90;;;;;;6149211;23;20300;-56
2023/06/21 09:08:23;;;;;;;12.70;11.55;;;23.50;99.90;;;;;;6149457;23;20422;-56
2023/06/21 09:10:50;;;;;;;11.30;10.30;;;23.60;99.90;;;;;;6150080;23;20052;-55
2023/06/21 09:13:18;;;;;;;10.77;9.85;;;23.70;99.90;;;;;;6147689;23;20006;-54
2023/06/21 09:15:50;;;;;;;12.43;11.27;;;23.90;99.90;;;;;;6146562;23;20006;-55
2023/06/21 09:18:15;;;;;;;10.25;9.30;;;23.80;99.90;;;;;;6146809;23;20012;-56
2023/06/21 09:20:49;;;;;;;11.23;10.18;;;23.80;99.90;;;;;;6149348;23;20017;-55
2023/06/21 09:23:16;;;;;;;10.63;9.68;;;24.00;99.90;;;;;;6148771;23;20393;-55
2023/06/21 09:25:45;;;;;;;13.77;12.48;;;24.20;99.90;;;;;;6148906;23;20017;-56
2023/06/21 09:28:11;;;;;;;11.65;10.63;;;24.40;99.90;;;;;;6149272;23;20076;-53
2023/06/21 09:30:37;;;;;;;10.70;9.63;;;24.50;99.90;;;;;;6148293;23;20472;-55
2023/06/21 09:33:04;;;;;;;10.40;8.35;;;24.70;99.90;;;;;;6148798;23;20020;-54
2023/06/21 09:35:29;;;;;;;9.70;8.75;;;24.80;99.90;;;;;;6150809;23;20025;-54
2023/06/21 09:37:55;;;;;;;9.85;8.68;;;24.90;99.90;;;;;;6151542;23;20005;-56
2023/06/21 09:40:20;;;;;;;9.65;8.73;;;24.70;99.90;;;;;;6151047;23;20068;-57
2023/06/21 09:42:46;;;;;;;10.65;9.43;;;24.60;99.90;;;;;;6151004;23;20080;-52
2023/06/21 09:45:17;;;;;;;10.60;9.70;;;24.70;99.90;;;;;;6150587;23;20106;-52
2023/06/21 09:47:42;;;;;;;9.88;8.90;;;24.50;99.90;;;;;;6151301;23;20008;-55
2023/06/21 09:50:09;;;;;;;11.20;9.32;;;24.60;99.90;;;;;;6151044;23;20080;-58
2023/06/21 09:52:35;;;;;;;9.27;8.40;;;24.60;99.90;;;;;;6150857;23;20005;-52
2023/06/21 09:55:02;;;;;;;9.98;8.98;;;24.30;99.90;;;;;;6150471;23;20012;-51
2023/06/21 09:57:32;;;;;;;10.85;8.65;;;24.10;99.90;;;;;;6150785;23;20045;-52
2023/06/21 10:00:05;;;;;;;11.23;9.73;;;24.10;99.90;;;;;;6149824;23;20021;-54
2023/06/21 10:02:40;;;;;;;10.90;9.77;;;24.20;99.90;;;;;;6150381;23;20021;-54
2023/06/21 10:05:16;;;;;;;11.15;8.80;;;24.30;99.90;;;;;;6151421;23;20009;-54
2023/06/21 10:07:45;;;;;;;12.70;10.32;;;24.30;99.90;;;;;;6150499;23;20079;-52
2023/06/21 10:10:12;;;;;;;9.90;9.00;;;24.40;99.90;;;;;;6151912;23;20438;-55
2023/06/21 10:12:48;;;;;;;10.90;9.80;;;24.30;99.90;;;;;;6150546;23;20010;-54
2023/06/21 10:15:14;;;;;;;11.80;8.98;;;24.30;99.90;;;;;;6150532;23;20002;-54
2023/06/21 10:17:40;;;;;;;9.80;8.80;;;24.40;99.90;;;;;;6150532;23;20120;-50
2023/06/21 10:20:07;;;;;;;8.27;7.45;;;24.50;99.90;;;;;;6149052;23;20002;-56
2023/06/21 10:22:36;;;;;;;9.18;8.35;;;24.50;99.90;;;;;;6148334;23;20717;-56
2023/06/21 10:25:03;;;;;;;10.02;9.13;;;24.40;99.90;;;;;;6150699;23;20406;-55
2023/06/21 10:27:30;;;;;;;10.88;9.77;;;24.30;99.90;;;;;;6150820;23;20488;-56
2023/06/21 10:29:57;;;;;;;10.18;9.07;;;24.20;99.90;;;;;;6150242;23;20317;-54
2023/06/21 10:32:27;;;;;;;10.70;9.50;;;24.30;99.90;;;;;;6148700;23;20045;-56
2023/06/21 10:35:11;;;;;;;12.05;9.20;;;24.30;99.90;;;;;;6148286;23;20446;-51
2023/06/21 10:37:58;;;;;;;9.90;8.90;;;24.30;99.90;;;;;;6150820;23;20001;-55
2023/06/21 10:40:25;;;;;;;10.48;9.48;;;24.30;99.90;;;;;;6149017;23;20104;-57
2023/06/21 10:42:53;;;;;;;10.05;9.05;;;24.30;99.90;;;;;;6150829;23;20326;-57
2023/06/21 10:45:18;;;;;;;11.52;8.85;;;24.40;99.90;;;;;;6149545;23;20085;-54
2023/06/21 10:47:47;;;;;;;10.35;7.40;;;24.50;99.90;;;;;;6150790;23;20060;-56
2023/06/21 10:50:13;;;;;;;8.85;7.95;;;24.60;99.90;;;;;;6150334;23;20005;-55
2023/06/21 10:52:39;;;;;;;10.98;9.88;;;24.60;99.90;;;;;;6150392;23;20064;-54
2023/06/21 10:55:06;;;;;;;10.77;9.68;;;24.50;99.90;;;;;;6150156;23;20080;-55
2023/06/21 10:57:33;;;;;;;10.00;9.00;;;24.50;99.90;;;;;;6150375;23;20044;-55
2023/06/21 11:00:07;;;;;;;9.23;8.27;;;24.60;99.90;;;;;;6149548;23;20109;-53
2023/06/21 11:02:33;;;;;;;8.82;8.05;;;24.60;99.90;;;;;;6149818;23;20018;-51
2023/06/21 11:05:12;;;;;;;8.52;6.70;;;24.70;99.90;;;;;;6148780;23;20075;-55
2023/06/21 11:07:44;;;;;;;7.68;5.95;;;24.70;99.90;;;;;;6150573;23;20028;-52
2023/06/21 11:10:10;;;;;;;6.35;5.75;;;24.70;99.90;;;;;;6148894;23;20077;-52
2023/06/21 11:12:36;;;;;;;7.38;6.68;;;24.80;99.90;;;;;;6149673;23;20476;-56
2023/06/21 11:15:04;;;;;;;8.13;7.32;;;24.90;99.90;;;;;;6148265;23;20006;-53
2023/06/21 11:17:34;;;;;;;7.15;6.45;;;24.90;99.90;;;;;;6150603;23;20101;-51
2023/06/21 11:20:18;;;;;;;7.53;6.72;;;24.90;99.90;;;;;;6148576;23;20076;-55
2023/06/21 11:23:01;;;;;;;6.88;5.55;;;25.00;99.90;;;;;;6148695;23;20004;-57
2023/06/21 11:25:27;;;;;;;8.35;6.80;;;25.00;99.90;;;;;;6150082;23;20029;-53
2023/06/21 11:28:26;;;;;;;8.25;6.90;;;24.90;99.90;;;;;;6149936;23;20090;-56
2023/06/21 11:31:01;;;;;;;8.95;7.35;;;24.90;99.90;;;;;;6147248;23;20366;-54
2023/06/21 11:33:29;;;;;;;9.20;8.07;;;24.90;99.90;;;;;;6148225;23;20025;-53
2023/06/21 11:36:05;;;;;;;8.30;7.50;;;24.90;99.90;;;;;;6147809;23;20001;-56
2023/06/21 11:38:31;;;;;;;;;;;25.10;99.90;;;;;;6150573;23;20425;-53
2023/06/21 11:40:57;;;;;;;8.10;6.40;;;25.20;99.90;;;;;;6150163;23;19935;-57
2023/06/21 11:43:23;;;;;;;7.03;6.43;;;25.30;99.90;;;;;;6147947;23;20091;-56
2023/06/21 11:46:02;;;;;;;8.88;7.50;;;25.40;99.90;;;;;;6149268;23;20009;-54
2023/06/21 11:48:28;;;;;;;7.38;6.50;;;25.40;99.90;;;;;;6148438;23;20442;-54
2023/06/21 11:50:55;;;;;;;5.03;4.55;;;25.50;99.90;;;;;;6147748;23;20092;-51
2023/06/21 11:53:28;;;;;;;5.32;4.30;;;25.50;99.90;;;;;;6150407;23;20002;-55
2023/06/21 11:55:56;;;;;;;8.90;5.55;;;25.60;99.90;;;;;;6149478;23;20633;-54
2023/06/21 11:58:23;;;;;;;9.00;4.65;;;25.60;99.90;;;;;;6148007;23;20002;-54
2023/06/21 12:00:49;;;;;;;4.80;4.40;;;25.70;99.90;;;;;;6148286;23;20033;-54
2023/06/21 12:03:15;;;;;;;6.32;4.63;;;25.70;99.90;;;;;;6150071;23;20013;-57
2023/06/21 12:05:52;;;;;;;4.70;4.30;;;25.70;99.90;;;;;;6149454;23;19998;-54
2023/06/21 12:08:20;;;;;;;6.05;4.47;;;25.60;99.90;;;;;;6149351;23;20002;-54
2023/06/21 12:10:47;;;;;;;7.13;5.00;;;25.30;99.90;;;;;;6147820;23;20554;-56
2023/06/21 12:13:18;;;;;;;5.53;4.40;;;25.20;99.90;;;;;;6149536;23;20028;-55
2023/06/21 12:15:50;;;;;;;6.07;5.50;;;25.20;99.90;;;;;;6147856;23;20001;-54
2023/06/21 12:18:16;;;;;;;6.43;5.82;;;25.20;99.90;;;;;;6148618;23;20059;-54
2023/06/21 12:20:42;;;;;;;6.03;5.50;;;25.20;99.90;;;;;;6149773;23;19998;-54
2023/06/21 12:23:09;;;;;;;6.03;4.25;;;25.30;99.90;;;;;;6150198;23;20089;-57
2023/06/21 12:25:56;;;;;;;5.85;4.10;;;25.40;99.90;;;;;;6148231;23;19998;-57
2023/06/21 12:28:23;;;;;;;5.15;3.72;;;25.60;99.90;;;;;;6149027;23;19998;-56
2023/06/21 12:30:53;;;;;;;4.43;3.92;;;25.70;99.90;;;;;;6148346;23;20466;-57
2023/06/21 12:33:22;;;;;;;4.40;3.53;;;25.80;99.90;;;;;;6148132;23;20013;-55
2023/06/21 12:35:47;;;;;;;4.45;4.05;;;26.00;99.90;;;;;;6148628;23;20349;-56
2023/06/21 12:38:14;;;;;;;5.65;5.15;;;26.10;99.90;;;;;;6149626;23;20077;-55
2023/06/21 12:41:01;;;;;;;5.47;4.85;;;26.10;99.90;;;;;;6149490;23;20386;-56
2023/06/21 12:43:48;;;;;;;7.13;5.55;;;26.10;99.90;;;;;;6148715;23;20461;-53